Time;durP1;ratioP1;P1;durP2;ratioP2;P2;SDS_P1;SDS_P2;PMS_P1;PMS_P2;Temp;Humidity;BMP_temperature;BMP_pressure;BME280_temperature;BME280_humidity;BME280_pressure;Samples;Min_cycle;Max_cycle;Signal;HPM_P1;HPM_P2
2022/09/01 00:00:40;;;;;;;40.9;33.6;;;;;;;15.06;92.69238;95551.5;;;;
2022/09/01 00:01:44;;;;;;;40.9;33.6;;;;;;;15.06;92.69238;95551.5;;;;
2022/09/01 00:02:49;;;;;;;40.9;33.6;;;;;;;15.06;92.69238;95551.5;;;;
2022/09/01 00:03:51;;;;;;;40.9;33.6;;;;;;;15.06;92.69238;95551.5;;;;
2022/09/01 00:04:57;;;;;;;44.9;35.4;;;;;;;15.03;92.64551;95558.62;;;;
2022/09/01 00:05:57;;;;;;;44.9;35.4;;;;;;;15.03;92.64551;95558.62;;;;
2022/09/01 00:06:58;;;;;;;44.9;35.4;;;;;;;15.03;92.64551;95558.62;;;;
2022/09/01 00:07:59;;;;;;;44.9;35.4;;;;;;;15.03;92.64551;95558.62;;;;
2022/09/01 00:08:59;;;;;;;44.9;35.4;;;;;;;15.03;92.64551;95558.62;;;;
2022/09/01 00:10:03;;;;;;;44.9;35.4;;;;;;;15.03;92.64551;95558.62;;;;
2022/09/01 00:11:07;;;;;;;44.9;35.4;;;;;;;15.03;92.64551;95558.62;;;;
2022/09/01 00:12:08;;;;;;;44.9;35.4;;;;;;;15.03;92.64551;95558.62;;;;
2022/09/01 00:13:09;;;;;;;44.9;35.4;;;;;;;15.03;92.64551;95558.62;;;;
2022/09/01 00:14:09;;;;;;;44.9;35.4;;;;;;;15.03;92.64551;95558.62;;;;
2022/09/01 00:15:10;;;;;;;44.9;35.4;;;;;;;15.03;92.64551;95558.62;;;;
2022/09/01 00:16:15;;;;;;;44.9;35.4;;;;;;;15.03;92.64551;95558.62;;;;
2022/09/01 00:17:16;;;;;;;44.9;35.4;;;;;;;15.03;92.64551;95558.62;;;;
2022/09/01 00:18:17;;;;;;;44.9;35.4;;;;;;;15.03;92.64551;95558.62;;;;
2022/09/01 00:19:18;;;;;;;44.9;35.4;;;;;;;15.03;92.64551;95558.62;;;;
2022/09/01 00:20:19;;;;;;;44.9;35.4;;;;;;;15.03;92.64551;95558.62;;;;
2022/09/01 00:21:19;;;;;;;44.9;35.4;;;;;;;15.03;92.64551;95558.62;;;;
2022/09/01 00:22:23;;;;;;;44.9;35.4;;;;;;;15.03;92.64551;95558.62;;;;
2022/09/01 00:23:23;;;;;;;44.9;35.4;;;;;;;15.03;92.64551;95558.62;;;;
2022/09/01 00:24:24;;;;;;;44.9;35.4;;;;;;;15.03;92.64551;95558.62;;;;
2022/09/01 00:25:26;;;;;;;44.9;35.4;;;;;;;15.03;92.64551;95558.62;;;;
2022/09/01 00:26:27;;;;;;;41.95;34.85;;;;;;;15.01;92.78027;95560.29;;;;
2022/09/01 00:27:28;;;;;;;41.95;34.85;;;;;;;15.01;92.78027;95560.29;;;;
2022/09/01 00:28:28;;;;;;;41.95;34.85;;;;;;;15.01;92.78027;95560.29;;;;
2022/09/01 00:29:31;;;;;;;41.95;34.85;;;;;;;15.01;92.78027;95560.29;;;;
2022/09/01 00:30:32;;;;;;;41.95;34.85;;;;;;;15.01;92.78027;95560.29;;;;
2022/09/01 00:31:33;;;;;;;41.95;34.85;;;;;;;15.01;92.78027;95560.29;;;;
2022/09/01 00:32:34;;;;;;;41.95;34.85;;;;;;;15.01;92.78027;95560.29;;;;
2022/09/01 00:33:35;;;;;;;41.95;34.85;;;;;;;15.01;92.78027;95560.29;;;;
2022/09/01 00:34:37;;;;;;;41.95;34.85;;;;;;;15.01;92.78027;95560.29;;;;
2022/09/01 00:35:37;;;;;;;41.95;34.85;;;;;;;15.01;92.78027;95560.29;;;;
2022/09/01 00:36:38;;;;;;;40.15;34.15;;;;;;;15.01;92.88672;95550.19;;;;
2022/09/01 00:37:38;;;;;;;40.15;34.15;;;;;;;15.01;92.88672;95550.19;;;;
2022/09/01 00:38:39;;;;;;;40.15;34.15;;;;;;;15.01;92.88672;95550.19;;;;
2022/09/01 00:39:39;;;;;;;40.15;34.15;;;;;;;15.01;92.88672;95550.19;;;;
2022/09/01 00:40:40;;;;;;;40.15;34.15;;;;;;;15.01;92.88672;95550.19;;;;
2022/09/01 00:41:41;;;;;;;40.15;34.15;;;;;;;15.01;92.88672;95550.19;;;;
2022/09/01 00:42:43;;;;;;;40.15;34.15;;;;;;;15.01;92.88672;95550.19;;;;
2022/09/01 00:43:43;;;;;;;40.15;34.15;;;;;;;15.01;92.88672;95550.19;;;;
2022/09/01 00:44:47;;;;;;;40.15;34.15;;;;;;;15.01;92.88672;95550.19;;;;
2022/09/01 00:45:50;;;;;;;40.15;34.15;;;;;;;15.01;92.88672;95550.19;;;;
2022/09/01 00:46:51;;;;;;;40.15;34.15;;;;;;;15.01;92.88672;95550.19;;;;
2022/09/01 00:47:53;;;;;;;46.65;37.04999;;;;;;;14.93;92.90137;95549.2;;;;
2022/09/01 00:48:53;;;;;;;46.65;37.04999;;;;;;;14.93;92.90137;95549.2;;;;
2022/09/01 00:49:57;;;;;;;46.65;37.04999;;;;;;;14.93;92.90137;95549.2;;;;
2022/09/01 00:50:58;;;;;;;46.65;37.04999;;;;;;;14.93;92.90137;95549.2;;;;
2022/09/01 00:51:59;;;;;;;46.65;37.04999;;;;;;;14.93;92.90137;95549.2;;;;
2022/09/01 00:53:06;;;;;;;46.65;37.04999;;;;;;;14.93;92.90137;95549.2;;;;
2022/09/01 00:54:08;;;;;;;46.65;37.04999;;;;;;;14.93;92.90137;95549.2;;;;
2022/09/01 00:55:13;;;;;;;46.65;37.04999;;;;;;;14.93;92.90137;95549.2;;;;
2022/09/01 00:56:20;;;;;;;46.65;37.04999;;;;;;;14.93;92.90137;95549.2;;;;
2022/09/01 00:57:22;;;;;;;46.65;37.04999;;;;;;;14.93;92.90137;95549.2;;;;
2022/09/01 00:58:23;;;;;;;44.75;36.55;;;;;;;14.97;93.14844;95538.37;;;;
2022/09/01 00:59:24;;;;;;;44.75;36.55;;;;;;;14.97;93.14844;95538.37;;;;
2022/09/01 01:00:26;;;;;;;44.75;36.55;;;;;;;14.97;93.14844;95538.37;;;;
2022/09/01 01:01:29;;;;;;;44.75;36.55;;;;;;;14.97;93.14844;95538.37;;;;
2022/09/01 01:02:30;;;;;;;44.75;36.55;;;;;;;14.97;93.14844;95538.37;;;;
2022/09/01 01:03:30;;;;;;;44.75;36.55;;;;;;;14.97;93.14844;95538.37;;;;
2022/09/01 01:04:31;;;;;;;44.75;36.55;;;;;;;14.97;93.14844;95538.37;;;;
2022/09/01 01:05:32;;;;;;;44.75;36.55;;;;;;;14.97;93.14844;95538.37;;;;
2022/09/01 01:06:39;;;;;;;44.75;36.55;;;;;;;14.97;93.14844;95538.37;;;;
2022/09/01 01:07:43;;;;;;;44.75;36.55;;;;;;;14.97;93.14844;95538.37;;;;
2022/09/01 01:08:48;;;;;;;44.75;36.55;;;;;;;14.97;93.14844;95538.37;;;;
2022/09/01 01:09:49;;;;;;;44.75;36.55;;;;;;;14.97;93.14844;95538.37;;;;
2022/09/01 01:10:50;;;;;;;44.75;36.55;;;;;;;14.97;93.14844;95538.37;;;;
2022/09/01 01:11:51;;;;;;;44.75;36.55;;;;;;;14.97;93.14844;95538.37;;;;
2022/09/01 01:12:52;;;;;;;44.75;36.55;;;;;;;14.97;93.14844;95538.37;;;;
2022/09/01 01:13:53;;;;;;;44.75;36.55;;;;;;;14.97;93.14844;95538.37;;;;
2022/09/01 01:14:57;;;;;;;44.75;36.55;;;;;;;14.97;93.14844;95538.37;;;;
2022/09/01 01:15:58;;;;;;;44.75;36.55;;;;;;;14.97;93.14844;95538.37;;;;
2022/09/01 01:16:59;;;;;;;44.75;36.55;;;;;;;14.97;93.14844;95538.37;;;;
2022/09/01 01:18:00;;;;;;;44.75;36.55;;;;;;;14.97;93.14844;95538.37;;;;
2022/09/01 01:19:00;;;;;;;44.75;36.55;;;;;;;14.97;93.14844;95538.37;;;;
2022/09/01 01:25:22;;;;;;;51.34999;39.55;;;;;;;15;93.25195;95539.64;;;;
2022/09/01 01:26:23;;;;;;;51.34999;39.55;;;;;;;15;93.25195;95539.64;;;;
2022/09/01 01:27:24;;;;;;;51.34999;39.55;;;;;;;15;93.25195;95539.64;;;;
2022/09/01 01:28:30;;;;;;;51.34999;39.55;;;;;;;15;93.25195;95539.64;;;;
2022/09/01 01:29:35;;;;;;;51.34999;39.55;;;;;;;15;93.25195;95539.64;;;;
2022/09/01 01:30:36;;;;;;;55.8;40.95;;;;;;;14.94;93.16406;95529.52;;;;
2022/09/01 01:31:39;;;;;;;55.8;40.95;;;;;;;14.94;93.16406;95529.52;;;;
2022/09/01 01:32:41;;;;;;;55.8;40.95;;;;;;;14.94;93.16406;95529.52;;;;
2022/09/01 01:33:43;;;;;;;55.8;40.95;;;;;;;14.94;93.16406;95529.52;;;;
2022/09/01 01:34:46;;;;;;;55.8;40.95;;;;;;;14.94;93.16406;95529.52;;;;
2022/09/01 01:35:46;;;;;;;55.8;40.95;;;;;;;14.94;93.16406;95529.52;;;;
2022/09/01 01:36:47;;;;;;;55.8;40.95;;;;;;;14.94;93.16406;95529.52;;;;
2022/09/01 01:37:49;;;;;;;55.8;40.95;;;;;;;14.94;93.16406;95529.52;;;;
2022/09/01 01:38:49;;;;;;;55.8;40.95;;;;;;;14.94;93.16406;95529.52;;;;
2022/09/01 01:39:50;;;;;;;55.8;40.95;;;;;;;14.94;93.16406;95529.52;;;;
2022/09/01 01:40:52;;;;;;;57.9;41.89999;;;;;;;14.93;93.38086;95533.1;;;;
2022/09/01 01:41:53;;;;;;;57.9;41.89999;;;;;;;14.93;93.38086;95533.1;;;;
2022/09/01 01:42:56;;;;;;;57.9;41.89999;;;;;;;14.93;93.38086;95533.1;;;;
2022/09/01 01:43:57;;;;;;;57.9;41.89999;;;;;;;14.93;93.38086;95533.1;;;;
2022/09/01 01:44:59;;;;;;;57.9;41.89999;;;;;;;14.93;93.38086;95533.1;;;;
2022/09/01 01:46:01;;;;;;;57.9;41.89999;;;;;;;14.93;93.38086;95533.1;;;;
2022/09/01 01:47:07;;;;;;;57.9;41.89999;;;;;;;14.93;93.38086;95533.1;;;;
2022/09/01 01:48:11;;;;;;;57.9;41.89999;;;;;;;14.93;93.38086;95533.1;;;;
2022/09/01 01:49:12;;;;;;;57.9;41.89999;;;;;;;14.93;93.38086;95533.1;;;;
2022/09/01 01:50:14;;;;;;;57.9;41.89999;;;;;;;14.93;93.38086;95533.1;;;;
2022/09/01 01:51:15;;;;;;;57.9;41.89999;;;;;;;14.93;93.38086;95533.1;;;;
2022/09/01 01:52:19;;;;;;;63.4;43.95;;;;;;;14.92;93.32227;95524.84;;;;
2022/09/01 01:53:20;;;;;;;63.4;43.95;;;;;;;14.92;93.32227;95524.84;;;;
2022/09/01 01:54:21;;;;;;;63.4;43.95;;;;;;;14.92;93.32227;95524.84;;;;
2022/09/01 01:55:26;;;;;;;63.4;43.95;;;;;;;14.92;93.32227;95524.84;;;;
2022/09/01 01:56:26;;;;;;;63.4;43.95;;;;;;;14.92;93.32227;95524.84;;;;
2022/09/01 01:57:34;;;;;;;63.4;43.95;;;;;;;14.92;93.32227;95524.84;;;;
2022/09/01 01:58:34;;;;;;;63.4;43.95;;;;;;;14.92;93.32227;95524.84;;;;
2022/09/01 01:59:37;;;;;;;63.4;43.95;;;;;;;14.92;93.32227;95524.84;;;;
2022/09/01 02:00:37;;;;;;;63.4;43.95;;;;;;;14.92;93.32227;95524.84;;;;
2022/09/01 02:01:40;;;;;;;63.4;43.95;;;;;;;14.92;93.32227;95524.84;;;;
2022/09/01 02:02:46;;;;;;;62.85;43.65;;;;;;;14.98;93.50684;95530.69;;;;
2022/09/01 02:03:51;;;;;;;62.85;43.65;;;;;;;14.98;93.50684;95530.69;;;;
2022/09/01 02:04:53;;;;;;;62.85;43.65;;;;;;;14.98;93.50684;95530.69;;;;
2022/09/01 02:05:54;;;;;;;62.85;43.65;;;;;;;14.98;93.50684;95530.69;;;;
2022/09/01 02:06:55;;;;;;;62.85;43.65;;;;;;;14.98;93.50684;95530.69;;;;
2022/09/01 02:07:55;;;;;;;62.85;43.65;;;;;;;14.98;93.50684;95530.69;;;;
2022/09/01 02:09:02;;;;;;;62.85;43.65;;;;;;;14.98;93.50684;95530.69;;;;
2022/09/01 02:10:03;;;;;;;62.85;43.65;;;;;;;14.98;93.50684;95530.69;;;;
2022/09/01 02:11:04;;;;;;;62.85;43.65;;;;;;;14.98;93.50684;95530.69;;;;
2022/09/01 02:12:07;;;;;;;62.85;43.65;;;;;;;14.98;93.50684;95530.69;;;;
2022/09/01 02:13:10;;;;;;;57.54999;40.00001;;;;;;;14.95;93.40625;95527.03;;;;
2022/09/01 02:14:19;;;;;;;57.54999;40.00001;;;;;;;14.95;93.40625;95527.03;;;;
2022/09/01 02:15:19;;;;;;;57.54999;40.00001;;;;;;;14.95;93.40625;95527.03;;;;
2022/09/01 02:16:21;;;;;;;57.54999;40.00001;;;;;;;14.95;93.40625;95527.03;;;;
2022/09/01 02:17:24;;;;;;;57.54999;40.00001;;;;;;;14.95;93.40625;95527.03;;;;
2022/09/01 02:18:25;;;;;;;57.54999;40.00001;;;;;;;14.95;93.40625;95527.03;;;;
2022/09/01 02:19:28;;;;;;;57.54999;40.00001;;;;;;;14.95;93.40625;95527.03;;;;
2022/09/01 02:20:28;;;;;;;57.54999;40.00001;;;;;;;14.95;93.40625;95527.03;;;;
2022/09/01 02:21:29;;;;;;;57.54999;40.00001;;;;;;;14.95;93.40625;95527.03;;;;
2022/09/01 02:22:29;;;;;;;57.54999;40.00001;;;;;;;14.95;93.40625;95527.03;;;;
2022/09/01 02:23:31;;;;;;;57.54999;40.00001;;;;;;;14.95;93.40625;95527.03;;;;
2022/09/01 02:24:32;;;;;;;57.54999;40.00001;;;;;;;14.95;93.40625;95527.03;;;;
2022/09/01 02:25:34;;;;;;;57.54999;40.00001;;;;;;;14.95;93.40625;95527.03;;;;
2022/09/01 02:26:38;;;;;;;57.54999;40.00001;;;;;;;14.95;93.40625;95527.03;;;;
2022/09/01 02:27:42;;;;;;;57.54999;40.00001;;;;;;;14.95;93.40625;95527.03;;;;
2022/09/01 02:28:44;;;;;;;57.54999;40.00001;;;;;;;14.95;93.40625;95527.03;;;;
2022/09/01 02:29:50;;;;;;;57.54999;40.00001;;;;;;;14.95;93.40625;95527.03;;;;
2022/09/01 02:30:50;;;;;;;57.54999;40.00001;;;;;;;14.95;93.40625;95527.03;;;;
2022/09/01 02:31:52;;;;;;;57.54999;40.00001;;;;;;;14.95;93.40625;95527.03;;;;
2022/09/01 02:32:53;;;;;;;57.54999;40.00001;;;;;;;14.95;93.40625;95527.03;;;;
2022/09/01 02:33:53;;;;;;;57.54999;40.00001;;;;;;;14.95;93.40625;95527.03;;;;
2022/09/01 02:35:00;;;;;;;59.49999;39.49999;;;;;;;14.68;93.20801;95531.2;;;;
2022/09/01 02:36:00;;;;;;;59.49999;39.49999;;;;;;;14.68;93.20801;95531.2;;;;
2022/09/01 02:37:05;;;;;;;59.49999;39.49999;;;;;;;14.68;93.20801;95531.2;;;;
2022/09/01 02:38:07;;;;;;;59.49999;39.49999;;;;;;;14.68;93.20801;95531.2;;;;
2022/09/01 02:39:07;;;;;;;59.49999;39.49999;;;;;;;14.68;93.20801;95531.2;;;;
2022/09/01 02:40:09;;;;;;;59.49999;39.49999;;;;;;;14.68;93.20801;95531.2;;;;
2022/09/01 02:41:10;;;;;;;59.49999;39.49999;;;;;;;14.68;93.20801;95531.2;;;;
2022/09/01 02:42:15;;;;;;;59.49999;39.49999;;;;;;;14.68;93.20801;95531.2;;;;
2022/09/01 02:43:18;;;;;;;59.49999;39.49999;;;;;;;14.68;93.20801;95531.2;;;;
2022/09/01 02:44:20;;;;;;;59.49999;39.49999;;;;;;;14.68;93.20801;95531.2;;;;
2022/09/01 02:45:23;;;;;;;59.45;40.39999;;;;;;;14.59;93.52344;95526.47;;;;
2022/09/01 02:46:25;;;;;;;59.45;40.39999;;;;;;;14.59;93.52344;95526.47;;;;
2022/09/01 02:47:27;;;;;;;59.45;40.39999;;;;;;;14.59;93.52344;95526.47;;;;
2022/09/01 02:48:28;;;;;;;59.45;40.39999;;;;;;;14.59;93.52344;95526.47;;;;
2022/09/01 02:49:31;;;;;;;59.45;40.39999;;;;;;;14.59;93.52344;95526.47;;;;
2022/09/01 02:50:32;;;;;;;59.45;40.39999;;;;;;;14.59;93.52344;95526.47;;;;
2022/09/01 02:51:33;;;;;;;59.45;40.39999;;;;;;;14.59;93.52344;95526.47;;;;
2022/09/01 02:52:36;;;;;;;59.45;40.39999;;;;;;;14.59;93.52344;95526.47;;;;
2022/09/01 02:53:38;;;;;;;59.45;40.39999;;;;;;;14.59;93.52344;95526.47;;;;
2022/09/01 02:54:40;;;;;;;59.45;40.39999;;;;;;;14.59;93.52344;95526.47;;;;
2022/09/01 02:55:41;;;;;;;48.85;35.95;;;;;;;14.47;93.49707;95534.01;;;;
2022/09/01 02:56:41;;;;;;;48.85;35.95;;;;;;;14.47;93.49707;95534.01;;;;
2022/09/01 02:57:47;;;;;;;48.85;35.95;;;;;;;14.47;93.49707;95534.01;;;;
2022/09/01 02:58:49;;;;;;;48.85;35.95;;;;;;;14.47;93.49707;95534.01;;;;
2022/09/01 02:59:49;;;;;;;48.85;35.95;;;;;;;14.47;93.49707;95534.01;;;;
2022/09/01 03:00:51;;;;;;;48.85;35.95;;;;;;;14.47;93.49707;95534.01;;;;
2022/09/01 03:01:52;;;;;;;48.85;35.95;;;;;;;14.47;93.49707;95534.01;;;;
2022/09/01 03:02:55;;;;;;;48.85;35.95;;;;;;;14.47;93.49707;95534.01;;;;
2022/09/01 03:03:58;;;;;;;48.85;35.95;;;;;;;14.47;93.49707;95534.01;;;;
2022/09/01 03:05:01;;;;;;;48.85;35.95;;;;;;;14.47;93.49707;95534.01;;;;
2022/09/01 03:06:03;;;;;;;48.85;35.95;;;;;;;14.47;93.49707;95534.01;;;;
2022/09/01 03:07:04;;;;;;;49.25;35.95;;;;;;;14.28;93.52246;95532.87;;;;
2022/09/01 03:08:06;;;;;;;49.25;35.95;;;;;;;14.28;93.52246;95532.87;;;;
2022/09/01 03:09:10;;;;;;;49.25;35.95;;;;;;;14.28;93.52246;95532.87;;;;
2022/09/01 03:10:15;;;;;;;49.25;35.95;;;;;;;14.28;93.52246;95532.87;;;;
2022/09/01 03:11:15;;;;;;;49.25;35.95;;;;;;;14.28;93.52246;95532.87;;;;
2022/09/01 03:12:16;;;;;;;49.25;35.95;;;;;;;14.28;93.52246;95532.87;;;;
2022/09/01 03:13:17;;;;;;;49.25;35.95;;;;;;;14.28;93.52246;95532.87;;;;
2022/09/01 03:14:20;;;;;;;49.25;35.95;;;;;;;14.28;93.52246;95532.87;;;;
2022/09/01 03:15:22;;;;;;;49.25;35.95;;;;;;;14.28;93.52246;95532.87;;;;
2022/09/01 03:16:22;;;;;;;49.25;35.95;;;;;;;14.28;93.52246;95532.87;;;;
2022/09/01 03:17:23;;;;;;;44.99999;33.7;;;;;;;13.99;93.39648;95522.14;;;;
2022/09/01 03:18:23;;;;;;;44.99999;33.7;;;;;;;13.99;93.39648;95522.14;;;;
2022/09/01 03:19:24;;;;;;;44.99999;33.7;;;;;;;13.99;93.39648;95522.14;;;;
2022/09/01 03:20:24;;;;;;;44.99999;33.7;;;;;;;13.99;93.39648;95522.14;;;;
2022/09/01 03:21:26;;;;;;;44.99999;33.7;;;;;;;13.99;93.39648;95522.14;;;;
2022/09/01 03:22:28;;;;;;;44.99999;33.7;;;;;;;13.99;93.39648;95522.14;;;;
2022/09/01 03:23:28;;;;;;;44.99999;33.7;;;;;;;13.99;93.39648;95522.14;;;;
2022/09/01 03:24:31;;;;;;;44.99999;33.7;;;;;;;13.99;93.39648;95522.14;;;;
2022/09/01 03:25:32;;;;;;;44.99999;33.7;;;;;;;13.99;93.39648;95522.14;;;;
2022/09/01 03:26:35;;;;;;;44.99999;33.7;;;;;;;13.99;93.39648;95522.14;;;;
2022/09/01 03:27:36;;;;;;;44.99999;33.7;;;;;;;13.99;93.39648;95522.14;;;;
2022/09/01 03:28:37;;;;;;;44.99999;33.7;;;;;;;13.99;93.39648;95522.14;;;;
2022/09/01 03:29:37;;;;;;;44.99999;33.7;;;;;;;13.99;93.39648;95522.14;;;;
2022/09/01 03:30:39;;;;;;;44.99999;33.7;;;;;;;13.99;93.39648;95522.14;;;;
2022/09/01 03:31:45;;;;;;;44.99999;33.7;;;;;;;13.99;93.39648;95522.14;;;;
2022/09/01 03:32:46;;;;;;;44.99999;33.7;;;;;;;13.99;93.39648;95522.14;;;;
2022/09/01 03:33:47;;;;;;;44.99999;33.7;;;;;;;13.99;93.39648;95522.14;;;;
2022/09/01 03:34:47;;;;;;;44.99999;33.7;;;;;;;13.99;93.39648;95522.14;;;;
2022/09/01 03:35:48;;;;;;;44.99999;33.7;;;;;;;13.99;93.39648;95522.14;;;;
2022/09/01 03:36:49;;;;;;;44.99999;33.7;;;;;;;13.99;93.39648;95522.14;;;;
2022/09/01 03:37:51;;;;;;;44.99999;33.7;;;;;;;13.99;93.39648;95522.14;;;;
2022/09/01 03:38:51;;;;;;;50.85001;35.55;;;;;;;13.54;93.62402;95513.87;;;;
2022/09/01 03:39:52;;;;;;;50.85001;35.55;;;;;;;13.54;93.62402;95513.87;;;;
2022/09/01 03:40:53;;;;;;;50.85001;35.55;;;;;;;13.54;93.62402;95513.87;;;;
2022/09/01 03:41:58;;;;;;;50.85001;35.55;;;;;;;13.54;93.62402;95513.87;;;;
2022/09/01 03:42:59;;;;;;;50.85001;35.55;;;;;;;13.54;93.62402;95513.87;;;;
2022/09/01 03:44:03;;;;;;;50.85001;35.55;;;;;;;13.54;93.62402;95513.87;;;;
2022/09/01 03:45:07;;;;;;;50.85001;35.55;;;;;;;13.54;93.62402;95513.87;;;;
2022/09/01 03:46:14;;;;;;;50.85001;35.55;;;;;;;13.54;93.62402;95513.87;;;;
2022/09/01 03:47:16;;;;;;;50.85001;35.55;;;;;;;13.54;93.62402;95513.87;;;;
2022/09/01 03:48:17;;;;;;;50.85001;35.55;;;;;;;13.54;93.62402;95513.87;;;;
2022/09/01 03:49:23;;;;;;;51.74999;37.34999;;;;;;;13.49;94.20703;95509.75;;;;
2022/09/01 03:50:24;;;;;;;51.74999;37.34999;;;;;;;13.49;94.20703;95509.75;;;;
2022/09/01 03:51:25;;;;;;;51.74999;37.34999;;;;;;;13.49;94.20703;95509.75;;;;
2022/09/01 03:52:26;;;;;;;51.74999;37.34999;;;;;;;13.49;94.20703;95509.75;;;;
2022/09/01 03:53:27;;;;;;;51.74999;37.34999;;;;;;;13.49;94.20703;95509.75;;;;
2022/09/01 03:54:31;;;;;;;51.74999;37.34999;;;;;;;13.49;94.20703;95509.75;;;;
2022/09/01 03:55:33;;;;;;;51.74999;37.34999;;;;;;;13.49;94.20703;95509.75;;;;
2022/09/01 03:56:37;;;;;;;51.74999;37.34999;;;;;;;13.49;94.20703;95509.75;;;;
2022/09/01 03:57:41;;;;;;;51.74999;37.34999;;;;;;;13.49;94.20703;95509.75;;;;
2022/09/01 03:58:45;;;;;;;51.74999;37.34999;;;;;;;13.49;94.20703;95509.75;;;;
2022/09/01 03:59:46;;;;;;;53.95001;38.65001;;;;;;;13.5;94.35742;95487.49;;;;
2022/09/01 04:00:47;;;;;;;53.95001;38.65001;;;;;;;13.5;94.35742;95487.49;;;;
2022/09/01 04:01:55;;;;;;;53.95001;38.65001;;;;;;;13.5;94.35742;95487.49;;;;
2022/09/01 04:02:56;;;;;;;53.95001;38.65001;;;;;;;13.5;94.35742;95487.49;;;;
2022/09/01 04:04:00;;;;;;;53.95001;38.65001;;;;;;;13.5;94.35742;95487.49;;;;
2022/09/01 04:05:01;;;;;;;53.95001;38.65001;;;;;;;13.5;94.35742;95487.49;;;;
2022/09/01 04:06:01;;;;;;;53.95001;38.65001;;;;;;;13.5;94.35742;95487.49;;;;
2022/09/01 04:07:02;;;;;;;53.95001;38.65001;;;;;;;13.5;94.35742;95487.49;;;;
2022/09/01 04:08:03;;;;;;;53.95001;38.65001;;;;;;;13.5;94.35742;95487.49;;;;
2022/09/01 04:09:06;;;;;;;53.95001;38.65001;;;;;;;13.5;94.35742;95487.49;;;;
2022/09/01 04:10:10;;;;;;;53.95001;38.65001;;;;;;;13.5;94.35742;95487.49;;;;
2022/09/01 04:11:12;;;;;;;55.95;39.45;;;;;;;13.6;94.54297;95492.13;;;;
2022/09/01 04:12:17;;;;;;;55.95;39.45;;;;;;;13.6;94.54297;95492.13;;;;
2022/09/01 04:13:17;;;;;;;55.95;39.45;;;;;;;13.6;94.54297;95492.13;;;;
2022/09/01 04:14:24;;;;;;;55.95;39.45;;;;;;;13.6;94.54297;95492.13;;;;
2022/09/01 04:15:24;;;;;;;55.95;39.45;;;;;;;13.6;94.54297;95492.13;;;;
2022/09/01 04:21:39;;;;;;;57.45;38.05;;;;;;;13.63;94.44141;95491.3;;;;
2022/09/01 04:22:40;;;;;;;57.45;38.05;;;;;;;13.63;94.44141;95491.3;;;;
2022/09/01 04:23:41;;;;;;;57.45;38.05;;;;;;;13.63;94.44141;95491.3;;;;
2022/09/01 04:24:44;;;;;;;57.45;38.05;;;;;;;13.63;94.44141;95491.3;;;;
2022/09/01 04:25:45;;;;;;;57.45;38.05;;;;;;;13.63;94.44141;95491.3;;;;
2022/09/01 04:26:48;;;;;;;57.45;38.05;;;;;;;13.63;94.44141;95491.3;;;;
2022/09/01 04:27:54;;;;;;;57.45;38.05;;;;;;;13.63;94.44141;95491.3;;;;
2022/09/01 04:28:54;;;;;;;57.45;38.05;;;;;;;13.63;94.44141;95491.3;;;;
2022/09/01 04:29:55;;;;;;;57.45;38.05;;;;;;;13.63;94.44141;95491.3;;;;
2022/09/01 04:30:56;;;;;;;57.45;38.05;;;;;;;13.63;94.44141;95491.3;;;;
2022/09/01 04:32:00;;;;;;;51.44999;38.2;;;;;;;13.72;94.61035;95492.18;;;;
2022/09/01 04:33:03;;;;;;;51.44999;38.2;;;;;;;13.72;94.61035;95492.18;;;;
2022/09/01 04:34:08;;;;;;;51.44999;38.2;;;;;;;13.72;94.61035;95492.18;;;;
2022/09/01 04:35:15;;;;;;;51.44999;38.2;;;;;;;13.72;94.61035;95492.18;;;;
2022/09/01 04:36:18;;;;;;;51.44999;38.2;;;;;;;13.72;94.61035;95492.18;;;;
2022/09/01 04:37:22;;;;;;;51.44999;38.2;;;;;;;13.72;94.61035;95492.18;;;;
2022/09/01 04:38:23;;;;;;;51.44999;38.2;;;;;;;13.72;94.61035;95492.18;;;;
2022/09/01 04:39:24;;;;;;;51.44999;38.2;;;;;;;13.72;94.61035;95492.18;;;;
2022/09/01 04:40:24;;;;;;;51.44999;38.2;;;;;;;13.72;94.61035;95492.18;;;;
2022/09/01 04:41:25;;;;;;;51.44999;38.2;;;;;;;13.72;94.61035;95492.18;;;;
2022/09/01 04:42:28;;;;;;;53.05;38.5;;;;;;;13.72;94.45898;95490.85;;;;
2022/09/01 04:43:29;;;;;;;53.05;38.5;;;;;;;13.72;94.45898;95490.85;;;;
2022/09/01 04:44:30;;;;;;;53.05;38.5;;;;;;;13.72;94.45898;95490.85;;;;
2022/09/01 04:45:31;;;;;;;53.05;38.5;;;;;;;13.72;94.45898;95490.85;;;;
2022/09/01 04:46:34;;;;;;;53.05;38.5;;;;;;;13.72;94.45898;95490.85;;;;
2022/09/01 04:47:40;;;;;;;53.05;38.5;;;;;;;13.72;94.45898;95490.85;;;;
2022/09/01 04:48:43;;;;;;;53.05;38.5;;;;;;;13.72;94.45898;95490.85;;;;
2022/09/01 04:49:46;;;;;;;53.05;38.5;;;;;;;13.72;94.45898;95490.85;;;;
2022/09/01 04:50:48;;;;;;;53.05;38.5;;;;;;;13.72;94.45898;95490.85;;;;
2022/09/01 04:51:48;;;;;;;53.05;38.5;;;;;;;13.72;94.45898;95490.85;;;;
2022/09/01 04:52:52;;;;;;;53.05;38.5;;;;;;;13.72;94.45898;95490.85;;;;
2022/09/01 04:53:53;;;;;;;50;36.05;;;;;;;13.77;94.59863;95500.7;;;;
2022/09/01 04:54:54;;;;;;;50;36.05;;;;;;;13.77;94.59863;95500.7;;;;
2022/09/01 04:55:55;;;;;;;50;36.05;;;;;;;13.77;94.59863;95500.7;;;;
2022/09/01 04:56:55;;;;;;;50;36.05;;;;;;;13.77;94.59863;95500.7;;;;
2022/09/01 04:57:56;;;;;;;50;36.05;;;;;;;13.77;94.59863;95500.7;;;;
2022/09/01 04:58:59;;;;;;;50;36.05;;;;;;;13.77;94.59863;95500.7;;;;
2022/09/01 05:00:00;;;;;;;50;36.05;;;;;;;13.77;94.59863;95500.7;;;;
2022/09/01 05:01:05;;;;;;;50;36.05;;;;;;;13.77;94.59863;95500.7;;;;
2022/09/01 05:02:13;;;;;;;50;36.05;;;;;;;13.77;94.59863;95500.7;;;;
2022/09/01 05:03:20;;;;;;;50;36.05;;;;;;;13.77;94.59863;95500.7;;;;
2022/09/01 05:04:21;;;;;;;50;36.05;;;;;;;13.77;94.59863;95500.7;;;;
2022/09/01 05:05:26;;;;;;;50;36.05;;;;;;;13.77;94.59863;95500.7;;;;
2022/09/01 05:06:26;;;;;;;50;36.05;;;;;;;13.77;94.59863;95500.7;;;;
2022/09/01 05:07:28;;;;;;;50;36.05;;;;;;;13.77;94.59863;95500.7;;;;
2022/09/01 05:08:30;;;;;;;50;36.05;;;;;;;13.77;94.59863;95500.7;;;;
2022/09/01 05:09:31;;;;;;;50;36.05;;;;;;;13.77;94.59863;95500.7;;;;
2022/09/01 05:10:36;;;;;;;50;36.05;;;;;;;13.77;94.59863;95500.7;;;;
2022/09/01 05:11:38;;;;;;;50;36.05;;;;;;;13.77;94.59863;95500.7;;;;
2022/09/01 05:12:40;;;;;;;50;36.05;;;;;;;13.77;94.59863;95500.7;;;;
2022/09/01 05:13:41;;;;;;;50;36.05;;;;;;;13.77;94.59863;95500.7;;;;
2022/09/01 05:14:42;;;;;;;45.24999;34.5;;;;;;;13.91;94.60742;95504.78;;;;
2022/09/01 05:15:45;;;;;;;45.24999;34.5;;;;;;;13.91;94.60742;95504.78;;;;
2022/09/01 05:16:48;;;;;;;45.24999;34.5;;;;;;;13.91;94.60742;95504.78;;;;
2022/09/01 05:17:57;;;;;;;45.24999;34.5;;;;;;;13.91;94.60742;95504.78;;;;
2022/09/01 05:18:57;;;;;;;45.24999;34.5;;;;;;;13.91;94.60742;95504.78;;;;
2022/09/01 05:19:58;;;;;;;45.24999;34.5;;;;;;;13.91;94.60742;95504.78;;;;
2022/09/01 05:21:04;;;;;;;45.24999;34.5;;;;;;;13.91;94.60742;95504.78;;;;
2022/09/01 05:22:07;;;;;;;45.24999;34.5;;;;;;;13.91;94.60742;95504.78;;;;
2022/09/01 05:23:11;;;;;;;45.24999;34.5;;;;;;;13.91;94.60742;95504.78;;;;
2022/09/01 05:24:13;;;;;;;45.24999;34.5;;;;;;;13.91;94.60742;95504.78;;;;
2022/09/01 05:25:17;;;;;;;45.6;36.05;;;;;;;13.95;94.41211;95512.6;;;;
2022/09/01 05:26:17;;;;;;;45.6;36.05;;;;;;;13.95;94.41211;95512.6;;;;
2022/09/01 05:27:21;;;;;;;45.6;36.05;;;;;;;13.95;94.41211;95512.6;;;;
2022/09/01 05:28:24;;;;;;;45.6;36.05;;;;;;;13.95;94.41211;95512.6;;;;
2022/09/01 05:29:26;;;;;;;45.6;36.05;;;;;;;13.95;94.41211;95512.6;;;;
2022/09/01 05:30:27;;;;;;;45.6;36.05;;;;;;;13.95;94.41211;95512.6;;;;
2022/09/01 05:31:33;;;;;;;45.6;36.05;;;;;;;13.95;94.41211;95512.6;;;;
2022/09/01 05:32:35;;;;;;;45.6;36.05;;;;;;;13.95;94.41211;95512.6;;;;
2022/09/01 05:33:44;;;;;;;45.6;36.05;;;;;;;13.95;94.41211;95512.6;;;;
2022/09/01 05:34:46;;;;;;;45.6;36.05;;;;;;;13.95;94.41211;95512.6;;;;
2022/09/01 05:35:47;;;;;;;42.15;33.45;;;;;;;14.08;94.51563;95505.77;;;;
2022/09/01 05:36:53;;;;;;;42.15;33.45;;;;;;;14.08;94.51563;95505.77;;;;
2022/09/01 05:37:57;;;;;;;42.15;33.45;;;;;;;14.08;94.51563;95505.77;;;;
2022/09/01 05:38:57;;;;;;;42.15;33.45;;;;;;;14.08;94.51563;95505.77;;;;
2022/09/01 05:39:59;;;;;;;42.15;33.45;;;;;;;14.08;94.51563;95505.77;;;;
2022/09/01 05:41:02;;;;;;;42.15;33.45;;;;;;;14.08;94.51563;95505.77;;;;
2022/09/01 05:42:06;;;;;;;42.15;33.45;;;;;;;14.08;94.51563;95505.77;;;;
2022/09/01 05:43:11;;;;;;;42.15;33.45;;;;;;;14.08;94.51563;95505.77;;;;
2022/09/01 05:44:14;;;;;;;42.15;33.45;;;;;;;14.08;94.51563;95505.77;;;;
2022/09/01 05:45:22;;;;;;;42.15;33.45;;;;;;;14.08;94.51563;95505.77;;;;
2022/09/01 05:46:22;;;;;;;38.64999;31.55;;;;;;;14.27;94.29688;95500.27;;;;
2022/09/01 05:47:25;;;;;;;38.64999;31.55;;;;;;;14.27;94.29688;95500.27;;;;
2022/09/01 05:48:25;;;;;;;38.64999;31.55;;;;;;;14.27;94.29688;95500.27;;;;